Time;durP1;ratioP1;P1;durP2;ratioP2;P2;SDS_P1;SDS_P2;PMS_P1;PMS_P2;Temp;Humidity;BMP_temperature;BMP_pressure;BME280_temperature;BME280_humidity;BME280_pressure;Samples;Min_cycle;Max_cycle;Signal;HPM_P1;HPM_P2
2024/03/31 00:01:14;;;;;;;;;7.67;7.67;;;;;;;;5099462;27;47099;-78
2024/03/31 00:03:40;;;;;;;;;8.67;8.00;;;;;;;;5099136;27;45448;-79
2024/03/31 00:06:05;;;;;;;;;7.00;5.33;;;;;;;;5099484;27;45251;-79
2024/03/31 00:08:31;;;;;;;;;6.67;6.67;;;;;;;;5099368;27;47403;-79
2024/03/31 00:11:04;;;;;;;;;8.00;8.00;;;;;;;;5100559;27;45209;-78
2024/03/31 00:13:29;;;;;;;;;10.00;8.00;;;;;;;;5099183;27;45920;-78
2024/03/31 00:15:54;;;;;;;;;7.00;7.00;;;;;;;;5100758;27;45341;-78
2024/03/31 00:18:20;;;;;;;;;5.00;5.00;;;;;;;;5100409;27;45422;-78
2024/03/31 00:20:45;;;;;;;;;8.67;7.00;;;;;;;;5100141;27;46367;-78
2024/03/31 00:23:10;;;;;;;;;7.67;7.67;;;;;;;;5097478;27;45471;-79
2024/03/31 00:25:35;;;;;;;;;9.67;9.33;;;;;;;;5079907;28;45327;-79
2024/03/31 00:28:00;;;;;;;;;7.00;7.00;;;;;;;;5079530;28;45212;-78
2024/03/31 00:30:25;;;;;;;;;7.00;7.00;;;;;;;;5079528;28;46113;-79
2024/03/31 00:32:51;;;;;;;;;9.00;8.00;;;;;;;;5079989;28;45289;-77
2024/03/31 00:35:16;;;;;;;;;8.00;8.00;;;;;;;;5078310;28;45274;-78
2024/03/31 00:37:41;;;;;;;;;9.00;9.00;;;;;;;;5079747;28;45274;-79
2024/03/31 00:40:07;;;;;;;;;8.67;7.67;;;;;;;;5079809;28;46330;-78
2024/03/31 00:42:32;;;;;;;;;8.67;7.67;;;;;;;;5078461;28;45883;-78
2024/03/31 00:44:57;;;;;;;;;7.33;7.33;;;;;;;;5079740;28;45219;-79
2024/03/31 00:47:22;;;;;;;;;11.00;8.67;;;;;;;;5079831;28;45196;-78
2024/03/31 00:49:48;;;;;;;;;10.00;9.67;;;;;;;;5078069;28;47203;-78
2024/03/31 00:52:13;;;;;;;;;9.67;9.67;;;;;;;;5078775;28;45246;-79
2024/03/31 00:54:41;;;;;;;;;9.00;8.00;;;;;;;;5082022;28;45189;-78
2024/03/31 00:57:07;;;;;;;;;8.00;8.00;;;;;;;;5087534;27;47055;-79
2024/03/31 00:59:32;;;;;;;;;7.33;7.33;;;;;;;;5103378;27;46063;-77
2024/03/31 01:01:57;;;;;;;;;8.00;8.00;;;;;;;;5103597;27;45285;-78
2024/03/31 01:04:22;;;;;;;;;9.33;9.33;;;;;;;;5103724;27;45361;-77
2024/03/31 01:06:48;;;;;;;;;8.00;8.00;;;;;;;;5102117;27;45911;-78
2024/03/31 01:09:14;;;;;;;;;9.67;9.00;;;;;;;;5103430;27;45361;-79
2024/03/31 01:11:40;;;;;;;;;7.00;7.00;;;;;;;;5102381;27;45345;-78
2024/03/31 01:14:05;;;;;;;;;8.00;8.00;;;;;;;;5101912;27;45271;-78
2024/03/31 01:16:30;;;;;;;;;10.00;7.00;;;;;;;;5103437;27;45233;-79
2024/03/31 01:18:56;;;;;;;;;7.00;5.33;;;;;;;;5103090;27;45265;-79
2024/03/31 01:21:25;;;;;;;;;3.00;3.00;;;;;;;;5103275;27;45302;-79
2024/03/31 01:23:51;;;;;;;;;3.00;3.00;;;;;;;;5101805;27;45385;-79
2024/03/31 01:26:17;;;;;;;;;2.67;2.67;;;;;;;;5103252;27;45239;-79
2024/03/31 01:28:42;;;;;;;;;4.33;4.00;;;;;;;;5102880;27;46293;-79
2024/03/31 01:31:07;;;;;;;;;3.00;3.00;;;;;;;;5101765;27;45398;-79
2024/03/31 01:33:32;;;;;;;;;3.00;3.00;;;;;;;;5103222;27;45473;-79
2024/03/31 01:36:01;;;;;;;;;4.67;3.00;;;;;;;;5103119;27;45342;-80
2024/03/31 01:38:26;;;;;;;;;3.33;3.00;;;;;;;;5103096;27;46590;-80
2024/03/31 01:40:52;;;;;;;;;2.00;2.00;;;;;;;;5103180;27;45270;-80
2024/03/31 01:43:17;;;;;;;;;4.00;3.67;;;;;;;;5101465;27;45326;-80
2024/03/31 01:45:42;;;;;;;;;4.00;4.00;;;;;;;;5101703;27;45820;-80
2024/03/31 01:48:07;;;;;;;;;2.33;2.33;;;;;;;;5102882;27;45357;-79
2024/03/31 01:50:32;;;;;;;;;2.00;2.00;;;;;;;;5101464;27;45333;-80
2024/03/31 01:52:57;;;;;;;;;4.33;4.33;;;;;;;;5102877;27;45201;-79
2024/03/31 01:55:23;;;;;;;;;5.33;5.33;;;;;;;;5102845;27;45206;-80
2024/03/31 01:57:48;;;;;;;;;5.00;4.33;;;;;;;;5089228;27;47001;-79
2024/03/31 02:00:13;;;;;;;;;6.00;6.00;;;;;;;;5080809;28;45252;-80
2024/03/31 02:02:38;;;;;;;;;3.33;3.00;;;;;;;;5080783;27;45254;-78
2024/03/31 02:05:04;;;;;;;;;6.33;6.00;;;;;;;;5080674;28;47045;-78
2024/03/31 02:07:29;;;;;;;;;4.33;4.33;;;;;;;;5082088;28;45450;-79
2024/03/31 02:09:54;;;;;;;;;5.33;5.33;;;;;;;;5080674;28;45314;-79
2024/03/31 02:12:19;;;;;;;;;5.67;5.33;;;;;;;;5080983;28;45243;-79
2024/03/31 02:14:44;;;;;;;;;9.00;7.00;;;;;;;;5081857;28;45515;-79
2024/03/31 02:17:10;;;;;;;;;5.00;5.00;;;;;;;;5080616;28;47472;-79
2024/03/31 02:19:35;;;;;;;;;5.00;5.00;;;;;;;;5080333;28;46052;-79
2024/03/31 02:22:00;;;;;;;;;6.33;5.33;;;;;;;;5081949;28;45247;-79
2024/03/31 02:24:25;;;;;;;;;8.33;6.67;;;;;;;;5081788;28;45572;-79
2024/03/31 02:26:50;;;;;;;;;6.00;6.00;;;;;;;;5081747;28;45880;-79
2024/03/31 02:29:16;;;;;;;;;6.00;5.33;;;;;;;;5080119;28;45379;-79
2024/03/31 02:31:41;;;;;;;;;7.33;5.33;;;;;;;;5081886;28;45381;-79
2024/03/31 02:34:06;;;;;;;;;6.00;6.00;;;;;;;;5081280;28;45318;-79
2024/03/31 02:36:31;;;;;;;;;6.33;5.67;;;;;;;;5080384;28;48443;-79
2024/03/31 02:38:57;;;;;;;;;4.00;3.00;;;;;;;;5080892;28;45521;-79
2024/03/31 02:41:22;;;;;;;;;7.00;5.67;;;;;;;;5078957;28;45448;-79
2024/03/31 02:43:48;;;;;;;;;5.67;4.00;;;;;;;;5081286;28;45442;-79
2024/03/31 02:46:13;;;;;;;;;6.00;6.00;;;;;;;;5081591;28;46671;-79
2024/03/31 02:48:38;;;;;;;;;5.00;4.00;;;;;;;;5081483;28;45314;-79
2024/03/31 02:51:03;;;;;;;;;6.00;5.67;;;;;;;;5080339;28;45390;-79
2024/03/31 02:53:28;;;;;;;;;7.33;6.67;;;;;;;;5079912;28;47052;-79
2024/03/31 02:55:54;;;;;;;;;6.33;6.33;;;;;;;;5081341;28;45465;-79
2024/03/31 02:58:19;;;;;;;;;10.67;9.00;;;;;;;;5097150;27;45418;-80
2024/03/31 03:00:44;;;;;;;;;6.67;6.00;;;;;;;;5102015;27;45450;-80
2024/03/31 03:03:09;;;;;;;;;4.33;4.33;;;;;;;;5101718;27;45306;-79
2024/03/31 03:05:34;;;;;;;;;6.00;6.00;;;;;;;;5101602;27;45521;-80
2024/03/31 03:08:00;;;;;;;;;5.67;5.00;;;;;;;;5101605;27;45312;-80
2024/03/31 03:10:25;;;;;;;;;5.00;4.33;;;;;;;;5101955;27;45297;-79
2024/03/31 03:12:50;;;;;;;;;4.00;3.33;;;;;;;;5101461;27;45488;-79
2024/03/31 03:15:15;;;;;;;;;5.00;5.00;;;;;;;;5098806;27;47060;-79
2024/03/31 03:17:40;;;;;;;;;7.67;6.67;;;;;;;;5099648;27;45321;-78
2024/03/31 03:20:06;;;;;;;;;3.00;3.00;;;;;;;;5101437;27;45322;-79
2024/03/31 03:22:33;;;;;;;;;7.00;6.00;;;;;;;;5099904;27;47073;-78
2024/03/31 03:24:59;;;;;;;;;6.33;6.00;;;;;;;;5101367;27;45425;-79
2024/03/31 03:27:24;;;;;;;;;7.00;5.00;;;;;;;;5099938;27;45250;-79
2024/03/31 03:29:51;;;;;;;;;5.00;5.00;;;;;;;;5101178;27;45408;-79
2024/03/31 03:32:16;;;;;;;;;6.00;5.00;;;;;;;;5098797;27;46396;-79
2024/03/31 03:34:41;;;;;;;;;4.00;4.00;;;;;;;;5100878;27;45406;-79
2024/03/31 03:37:07;;;;;;;;;4.00;4.00;;;;;;;;5099915;27;45728;-79
2024/03/31 03:39:34;;;;;;;;;6.00;4.33;;;;;;;;5101097;27;45400;-79
2024/03/31 03:41:59;;;;;;;;;7.67;5.33;;;;;;;;5099674;27;46166;-79
2024/03/31 03:44:24;;;;;;;;;4.67;4.67;;;;;;;;5099263;27;48292;-79
2024/03/31 03:46:49;;;;;;;;;5.00;4.67;;;;;;;;5099853;27;46275;-79
2024/03/31 03:49:14;;;;;;;;;7.33;7.33;;;;;;;;5098651;27;45284;-79
2024/03/31 03:51:40;;;;;;;;;4.00;4.00;;;;;;;;5101083;27;45285;-78
2024/03/31 03:54:05;;;;;;;;;4.67;4.67;;;;;;;;5100341;27;45718;-79
2024/03/31 03:56:30;;;;;;;;;5.00;4.00;;;;;;;;5099997;27;45199;-79
2024/03/31 03:58:57;;;;;;;;;7.33;5.00;;;;;;;;5080383;28;45446;-79
2024/03/31 04:01:22;;;;;;;;;3.67;3.00;;;;;;;;5079108;28;47346;-79
2024/03/31 04:03:47;;;;;;;;;4.33;4.33;;;;;;;;5079635;28;45196;-79
2024/03/31 04:06:12;;;;;;;;;4.67;4.00;;;;;;;;5080328;28;45365;-79
2024/03/31 04:08:39;;;;;;;;;3.33;3.33;;;;;;;;5078769;28;45229;-79
2024/03/31 04:11:04;;;;;;;;;4.00;4.00;;;;;;;;5077540;28;46987;-79
2024/03/31 04:13:29;;;;;;;;;6.00;5.67;;;;;;;;5079938;28;45374;-79
2024/03/31 04:15:58;;;;;;;;;4.33;4.33;;;;;;;;5078959;28;45219;-79
2024/03/31 04:18:23;;;;;;;;;5.00;5.00;;;;;;;;5080344;28;45392;-79
2024/03/31 04:20:49;;;;;;;;;4.67;3.67;;;;;;;;5078609;28;45905;-79
2024/03/31 04:23:14;;;;;;;;;5.00;4.00;;;;;;;;5079955;28;45322;-79
2024/03/31 04:25:39;;;;;;;;;5.00;4.67;;;;;;;;5079969;28;45435;-79
2024/03/31 04:28:04;;;;;;;;;4.67;4.00;;;;;;;;5077250;28;45335;-78
2024/03/31 04:30:29;;;;;;;;;7.00;4.00;;;;;;;;5079937;28;45523;-79
2024/03/31 04:32:54;;;;;;;;;2.00;2.00;;;;;;;;5079831;28;45447;-79
2024/03/31 04:35:20;;;;;;;;;4.00;4.00;;;;;;;;5078104;28;45751;-79
2024/03/31 04:37:48;;;;;;;;;4.67;3.67;;;;;;;;5078586;28;45319;-79
2024/03/31 04:40:13;;;;;;;;;5.67;4.00;;;;;;;;5079714;28;45572;-79
2024/03/31 04:42:39;;;;;;;;;3.33;3.33;;;;;;;;5079522;28;45227;-79
2024/03/31 04:45:04;;;;;;;;;5.00;4.67;;;;;;;;5078414;28;45413;-79
2024/03/31 04:47:29;;;;;;;;;6.00;5.00;;;;;;;;5079293;28;45267;-78
2024/03/31 04:49:54;;;;;;;;;4.67;4.67;;;;;;;;5077868;28;45919;-78
2024/03/31 04:52:22;;;;;;;;;4.67;4.00;;;;;;;;5079685;28;45541;-79
2024/03/31 04:54:48;;;;;;;;;5.00;5.00;;;;;;;;5078497;28;45273;-79
2024/03/31 04:57:13;;;;;;;;;6.33;5.67;;;;;;;;5086562;27;45540;-79
2024/03/31 04:59:38;;;;;;;;;6.00;6.00;;;;;;;;5098306;27;45968;-79
2024/03/31 05:02:03;;;;;;;;;3.33;3.33;;;;;;;;5100049;27;45410;-78
2024/03/31 05:04:28;;;;;;;;;3.00;3.00;;;;;;;;5098742;27;45948;-79
2024/03/31 05:06:53;;;;;;;;;4.33;4.33;;;;;;;;5098670;27;45334;-79
2024/03/31 05:09:19;;;;;;;;;4.67;4.00;;;;;;;;5098534;27;46004;-79
2024/03/31 05:11:44;;;;;;;;;2.67;2.00;;;;;;;;5099871;27;46038;-79
2024/03/31 05:14:09;;;;;;;;;4.00;4.00;;;;;;;;5099733;27;45332;-78
2024/03/31 05:16:35;;;;;;;;;5.67;2.67;;;;;;;;5100117;27;45218;-79
2024/03/31 05:19:00;;;;;;;;;4.67;4.00;;;;;;;;5099641;27;45360;-79
2024/03/31 05:21:25;;;;;;;;;4.33;3.33;;;;;;;;5098395;27;48135;-79
2024/03/31 05:23:50;;;;;;;;;3.00;3.00;;;;;;;;5097404;27;45712;-80
2024/03/31 05:26:15;;;;;;;;;2.00;2.00;;;;;;;;5073862;28;45517;-79
2024/03/31 05:28:41;;;;;;;;;4.00;4.00;;;;;;;;5066517;28;45277;-79
2024/03/31 05:31:06;;;;;;;;;6.00;6.00;;;;;;;;5060132;28;47100;-81
2024/03/31 05:33:32;;;;;;;;;6.00;4.00;;;;;;;;5075516;28;45159;-80
2024/03/31 05:35:57;;;;;;;;;3.33;3.33;;;;;;;;5077749;27;45279;-80
2024/03/31 05:38:23;;;;;;;;;6.00;4.33;;;;;;;;5079343;28;45258;-80
2024/03/31 05:40:48;;;;;;;;;3.67;3.67;;;;;;;;5081880;28;45557;-80
2024/03/31 05:43:13;;;;;;;;;4.67;4.00;;;;;;;;5081710;28;45379;-79
2024/03/31 05:45:39;;;;;;;;;7.33;5.33;;;;;;;;5081407;28;45370;-80
2024/03/31 05:48:05;;;;;;;;;7.33;5.33;;;;;;;;5082507;28;45310;-82
2024/03/31 05:50:31;;;;;;;;;5.00;4.67;;;;;;;;5082247;28;47577;-81
2024/03/31 05:52:56;;;;;;;;;5.67;5.67;;;;;;;;5080773;28;45341;-80
2024/03/31 05:55:21;;;;;;;;;5.00;5.00;;;;;;;;5082506;28;45425;-80
2024/03/31 05:57:46;;;;;;;;;5.00;5.00;;;;;;;;5093409;27;45326;-78
2024/03/31 06:00:12;;;;;;;;;6.00;6.00;;;;;;;;5101376;27;46932;-82
2024/03/31 06:02:37;;;;;;;;;4.33;4.33;;;;;;;;5101439;27;45439;-84
2024/03/31 06:05:03;;;;;;;;;7.00;6.00;;;;;;;;5103208;27;45421;-83
2024/03/31 06:07:29;;;;;;;;;6.00;5.00;;;;;;;;5102788;27;45327;-83
2024/03/31 06:09:55;;;;;;;;;7.67;6.00;;;;;;;;5100980;27;47601;-80
2024/03/31 06:12:20;;;;;;;;;8.33;8.33;;;;;;;;5073582;27;45528;-76
2024/03/31 06:14:45;;;;;;;;;8.00;7.00;;;;;;;;5061870;28;45542;-79
2024/03/31 06:17:10;;;;;;;;;8.67;8.67;;;;;;;;5060402;28;47143;-78
2024/03/31 06:19:35;;;;;;;;;11.00;10.33;;;;;;;;5065330;28;45429;-79
2024/03/31 06:22:00;;;;;;;;;9.00;7.00;;;;;;;;5074577;28;45280;-78
2024/03/31 06:24:26;;;;;;;;;10.00;9.00;;;;;;;;5082038;28;45512;-78
2024/03/31 06:26:51;;;;;;;;;7.67;7.00;;;;;;;;5073998;28;47093;-76
2024/03/31 06:29:16;;;;;;;;;8.33;7.33;;;;;;;;5081498;27;45287;-76
2024/03/31 06:31:41;;;;;;;;;7.33;6.33;;;;;;;;5080526;28;45292;-76
2024/03/31 06:34:07;;;;;;;;;8.00;7.33;;;;;;;;5081687;27;45448;-76
2024/03/31 06:36:32;;;;;;;;;6.00;6.00;;;;;;;;5081716;27;45547;-78
2024/03/31 06:38:58;;;;;;;;;6.67;6.33;;;;;;;;5081467;27;46001;-75
2024/03/31 06:41:23;;;;;;;;;7.33;6.00;;;;;;;;5080280;28;46035;-76
2024/03/31 06:43:48;;;;;;;;;8.00;6.00;;;;;;;;5073770;27;45838;-78
2024/03/31 06:46:13;;;;;;;;;8.67;7.00;;;;;;;;5068577;28;45653;-79
2024/03/31 06:48:38;;;;;;;;;5.67;5.67;;;;;;;;5076740;28;45404;-79
2024/03/31 06:51:04;;;;;;;;;6.00;6.00;;;;;;;;5061720;27;46073;-76
2024/03/31 06:53:29;;;;;;;;;6.00;3.00;;;;;;;;5073803;27;45468;-76
2024/03/31 06:55:54;;;;;;;;;4.33;4.00;;;;;;;;5079544;28;45686;-77
2024/03/31 06:58:19;;;;;;;;;1.33;1.33;;;;;;;;5080289;27;46278;-76
2024/03/31 07:00:44;;;;;;;;;4.00;3.00;;;;;;;;5077241;28;45476;-75
2024/03/31 07:03:10;;;;;;;;;3.33;3.33;;;;;;;;5080815;28;45465;-77
2024/03/31 07:05:35;;;;;;;;;3.00;2.67;;;;;;;;5080550;28;45627;-78
2024/03/31 07:08:00;;;;;;;;;3.33;2.00;;;;;;;;5080889;28;45265;-77
2024/03/31 07:10:28;;;;;;;;;4.00;2.00;;;;;;;;5081194;27;45791;-78
2024/03/31 07:12:53;;;;;;;;;5.33;2.00;;;;;;;;5079061;28;45362;-79
2024/03/31 07:15:18;;;;;;;;;4.00;4.00;;;;;;;;5070420;27;45360;-78
2024/03/31 07:17:43;;;;;;;;;1.00;1.00;;;;;;;;5060513;28;46726;-76
2024/03/31 07:20:09;;;;;;;;;3.00;3.00;;;;;;;;5059976;28;45395;-77
2024/03/31 07:22:34;;;;;;;;;4.00;4.00;;;;;;;;5060756;28;45244;-77
2024/03/31 07:24:59;;;;;;;;;2.67;2.67;;;;;;;;5061743;28;45346;-77
2024/03/31 07:27:24;;;;;;;;;4.00;4.00;;;;;;;;5078276;28;47286;-77
2024/03/31 07:29:49;;;;;;;;;2.67;2.67;;;;;;;;5079589;28;45368;-76
2024/03/31 07:32:15;;;;;;;;;7.67;7.67;;;;;;;;5077995;28;45538;-76
2024/03/31 07:34:40;;;;;;;;;1.33;1.00;;;;;;;;5080062;28;45529;-78
2024/03/31 07:37:05;;;;;;;;;2.00;1.67;;;;;;;;5079162;28;47194;-77
2024/03/31 07:39:30;;;;;;;;;2.00;2.00;;;;;;;;5079228;28;45403;-76
2024/03/31 07:41:55;;;;;;;;;3.00;2.00;;;;;;;;5080645;28;45415;-79
2024/03/31 07:44:20;;;;;;;;;1.33;1.33;;;;;;;;5080547;28;45294;-81
2024/03/31 07:46:46;;;;;;;;;5.67;5.00;;;;;;;;5080501;28;45341;-77
2024/03/31 07:49:11;;;;;;;;;2.67;1.00;;;;;;;;5081742;28;45275;-78
2024/03/31 07:51:36;;;;;;;;;1.67;1.67;;;;;;;;5081496;28;45613;-81
2024/03/31 07:54:01;;;;;;;;;3.00;1.00;;;;;;;;5080696;28;46467;-79
2024/03/31 07:56:26;;;;;;;;;2.00;1.00;;;;;;;;5084127;27;45400;-79
2024/03/31 07:58:51;;;;;;;;;1.67;1.67;;;;;;;;5107590;27;45199;-81
2024/03/31 08:01:16;;;;;;;;;1.00;1.00;;;;;;;;5101389;27;45578;-76
2024/03/31 08:03:42;;;;;;;;;3.67;3.00;;;;;;;;5098852;27;47007;-79
2024/03/31 08:06:07;;;;;;;;;1.00;1.00;;;;;;;;5095676;27;45526;-79
2024/03/31 08:08:32;;;;;;;;;1.00;1.00;;;;;;;;5080467;28;45548;-77
2024/03/31 08:10:57;;;;;;;;;0.00;0.00;;;;;;;;5080697;28;45578;-77
2024/03/31 08:13:22;;;;;;;;;1.00;1.00;;;;;;;;5083789;28;45443;-79
2024/03/31 08:15:48;;;;;;;;;1.00;0.00;;;;;;;;5081766;28;45468;-77
2024/03/31 08:18:13;;;;;;;;;0.67;0.67;;;;;;;;5082891;28;45354;-77
2024/03/31 08:20:38;;;;;;;;;1.67;1.67;;;;;;;;5082049;28;45397;-78
2024/03/31 08:23:03;;;;;;;;;0.00;0.00;;;;;;;;5078368;28;45785;-79
2024/03/31 08:25:28;;;;;;;;;0.67;0.67;;;;;;;;5079794;28;46016;-78
2024/03/31 08:27:54;;;;;;;;;2.33;0.67;;;;;;;;5079509;28;45269;-75
2024/03/31 08:30:19;;;;;;;;;0.00;0.00;;;;;;;;5079972;28;45427;-76
2024/03/31 08:32:45;;;;;;;;;0.00;0.00;;;;;;;;5079791;28;45268;-75
2024/03/31 08:35:10;;;;;;;;;1.00;1.00;;;;;;;;5071116;28;46982;-75
2024/03/31 08:37:35;;;;;;;;;1.00;1.00;;;;;;;;5066970;28;45488;-74
2024/03/31 08:40:00;;;;;;;;;2.00;0.00;;;;;;;;5068171;28;45584;-77
2024/03/31 08:42:36;;;;;;;;;0.00;0.00;;;;;;;;5063999;28;46106;-77
2024/03/31 08:45:02;;;;;;;;;0.00;0.00;;;;;;;;5065847;28;48664;-75
2024/03/31 08:47:29;;;;;;;;;0.00;0.00;;;;;;;;5057097;28;45249;-76
2024/03/31 08:49:55;;;;;;;;;1.00;0.00;;;;;;;;5066012;28;45741;-75
2024/03/31 08:52:21;;;;;;;;;0.00;0.00;;;;;;;;5067603;28;47381;-77
2024/03/31 08:54:47;;;;;;;;;0.00;0.00;;;;;;;;5078822;28;45275;-76
2024/03/31 08:57:12;;;;;;;;;0.33;0.00;;;;;;;;5084684;27;45358;-77
2024/03/31 08:59:37;;;;;;;;;0.00;0.00;;;;;;;;5099491;27;45519;-76
2024/03/31 09:02:03;;;;;;;;;0.00;0.00;;;;;;;;5097783;27;45837;-77
2024/03/31 09:04:28;;;;;;;;;0.00;0.00;;;;;;;;5097464;27;47205;-78
2024/03/31 09:06:53;;;;;;;;;0.00;0.00;;;;;;;;5096772;27;45722;-78
2024/03/31 09:09:22;;;;;;;;;0.50;0.50;;;;;;;;5098072;27;45359;-77
2024/03/31 09:11:48;;;;;;;;;1.00;0.00;;;;;;;;5097900;27;46968;-76
2024/03/31 09:14:13;;;;;;;;;0.00;0.00;;;;;;;;5086128;27;45371;-76
2024/03/31 09:16:43;;;;;;;;;0.00;0.00;;;;;;;;5081573;28;45393;-79
2024/03/31 09:19:08;;;;;;;;;0.00;0.00;;;;;;;;5080230;28;45314;-78
2024/03/31 09:21:42;;;;;;;;;0.00;0.00;;;;;;;;5063034;28;45742;-78
2024/03/31 09:24:07;;;;;;;;;0.00;0.00;;;;;;;;5061893;28;45546;-76
2024/03/31 09:26:32;;;;;;;;;0.00;0.00;;;;;;;;5061930;28;45366;-77
2024/03/31 09:28:57;;;;;;;;;0.00;0.00;;;;;;;;5065293;28;45503;-76
2024/03/31 09:31:23;;;;;;;;;0.00;0.00;;;;;;;;5069659;28;45297;-76
2024/03/31 09:33:48;;;;;;;;;0.00;0.00;;;;;;;;5068248;28;47160;-78
2024/03/31 09:36:13;;;;;;;;;0.00;0.00;;;;;;;;5080116;28;45381;-77
2024/03/31 09:38:38;;;;;;;;;0.00;0.00;;;;;;;;5081525;28;45664;-77
2024/03/31 09:41:04;;;;;;;;;0.00;0.00;;;;;;;;5080152;28;45942;-76
2024/03/31 09:43:29;;;;;;;;;0.00;0.00;;;;;;;;5079994;28;48563;-78
2024/03/31 09:45:54;;;;;;;;;0.00;0.00;;;;;;;;5081798;28;45254;-76
2024/03/31 09:48:24;;;;;;;;;0.33;0.00;;;;;;;;5080424;28;45350;-76
2024/03/31 09:51:00;;;;;;;;;7.33;7.33;;;;;;;;5080851;28;45282;-77
2024/03/31 09:53:27;;;;;;;;;0.00;0.00;;;;;;;;5067379;28;47067;-77
2024/03/31 09:55:56;;;;;;;;;0.00;0.00;;;;;;;;5079876;28;45618;-78
2024/03/31 09:58:21;;;;;;;;;0.00;0.00;;;;;;;;5096969;27;45418;-76
2024/03/31 10:00:47;;;;;;;;;0.00;0.00;;;;;;;;5065276;27;45308;-77
2024/03/31 10:03:27;;;;;;;;;0.00;0.00;;;;;;;;5060787;28;48630;-78
2024/03/31 10:05:52;;;;;;;;;0.00;0.00;;;;;;;;5084707;27;45369;-76
2024/03/31 10:08:18;;;;;;;;;0.00;0.00;;;;;;;;5077495;28;45305;-76
2024/03/31 10:10:44;;;;;;;;;0.00;0.00;;;;;;;;5081652;28;45314;-76
2024/03/31 10:13:09;;;;;;;;;0.00;0.00;;;;;;;;5081531;28;45400;-76
2024/03/31 10:15:35;;;;;;;;;0.00;0.00;;;;;;;;5068406;28;45914;-76
2024/03/31 10:18:05;;;;;;;;;0.00;0.00;;;;;;;;5066868;27;45909;-76
2024/03/31 10:20:31;;;;;;;;;0.00;0.00;;;;;;;;5100402;27;46941;-76
2024/03/31 10:23:00;;;;;;;;;0.00;0.00;;;;;;;;5101763;27;45320;-77
2024/03/31 10:25:27;;;;;;;;;0.00;0.00;;;;;;;;5101802;27;45373;-76
2024/03/31 10:27:53;;;;;;;;;0.00;0.00;;;;;;;;5100819;27;45400;-77
2024/03/31 10:30:18;;;;;;;;;0.00;0.00;;;;;;;;5101865;27;45369;-77
2024/03/31 10:32:45;;;;;;;;;0.00;0.00;;;;;;;;5101921;27;45347;-76
2024/03/31 10:35:10;;;;;;;;;0.00;0.00;;;;;;;;5101626;27;45471;-75
2024/03/31 10:37:36;;;;;;;;;0.00;0.00;;;;;;;;5101961;27;45240;-79
2024/03/31 10:40:02;;;;;;;;;0.00;0.00;;;;;;;;5101837;27;45235;-77
2024/03/31 10:42:28;;;;;;;;;0.00;0.00;;;;;;;;5100232;27;47401;-79
2024/03/31 10:44:54;;;;;;;;;0.00;0.00;;;;;;;;5100376;27;45438;-78
2024/03/31 10:47:20;;;;;;;;;0.00;0.00;;;;;;;;5100806;27;45345;-77
2024/03/31 10:49:45;;;;;;;;;0.00;0.00;;;;;;;;5101449;27;45336;-79
2024/03/31 10:52:14;;;;;;;;;0.00;0.00;;;;;;;;5100135;27;48200;-80
2024/03/31 10:54:40;;;;;;;;;0.00;0.00;;;;;;;;5100511;27;46733;-78
2024/03/31 10:57:10;;;;;;;;;0.00;0.00;;;;;;;;5100010;27;45336;-77
2024/03/31 10:59:36;;;;;;;;;0.00;0.00;;;;;;;;5101476;27;45476;-77
2024/03/31 11:02:14;;;;;;;;;0.00;0.00;;;;;;;;5101211;27;45359;-76
2024/03/31 11:04:44;;;;;;;;;0.00;0.00;;;;;;;;5101038;27;45314;-75
2024/03/31 11:07:14;;;;;;;;;0.00;0.00;;;;;;;;5101686;27;45381;-77
2024/03/31 11:09:40;;;;;;;;;0.00;0.00;;;;;;;;5098426;27;46171;-77
2024/03/31 11:12:14;;;;;;;;;0.00;0.00;;;;;;;;5076190;28;48923;-76
2024/03/31 11:14:41;;;;;;;;;0.00;0.00;;;;;;;;5081149;28;45334;-76
2024/03/31 11:17:07;;;;;;;;;0.00;0.00;;;;;;;;5081027;28;45351;-77
2024/03/31 11:19:32;;;;;;;;;0.00;0.00;;;;;;;;5097579;27;45367;-80
2024/03/31 11:22:02;;;;;;;;;0.00;0.00;;;;;;;;5092621;27;45430;-80
2024/03/31 11:24:28;;;;;;;;;0.00;0.00;;;;;;;;5080204;28;45519;-80
2024/03/31 11:26:54;;;;;;;;;0.00;0.00;;;;;;;;5081183;28;45342;-81
2024/03/31 11:29:19;;;;;;;;;0.00;0.00;;;;;;;;5080534;28;45426;-81
2024/03/31 11:31:45;;;;;;;;;0.00;0.00;;;;;;;;5080637;28;45318;-80
2024/03/31 11:34:10;;;;;;;;;0.00;0.00;;;;;;;;5079171;28;45748;-80
2024/03/31 11:36:35;;;;;;;;;0.00;0.00;;;;;;;;5079195;28;45295;-80
2024/03/31 11:39:01;;;;;;;;;0.00;0.00;;;;;;;;5080943;28;45445;-80
2024/03/31 11:41:27;;;;;;;;;0.25;0.00;;;;;;;;5079381;28;48474;-79
2024/03/31 11:43:52;;;;;;;;;0.00;0.00;;;;;;;;5080681;28;45296;-80
2024/03/31 11:46:18;;;;;;;;;0.00;0.00;;;;;;;;5079800;28;45427;-78
2024/03/31 11:48:43;;;;;;;;;0.00;0.00;;;;;;;;5081016;28;45334;-79
2024/03/31 11:51:08;;;;;;;;;0.00;0.00;;;;;;;;5080672;28;46619;-80
2024/03/31 11:53:33;;;;;;;;;0.00;0.00;;;;;;;;5079319;28;45408;-79
2024/03/31 11:55:58;;;;;;;;;0.00;0.00;;;;;;;;5081062;28;45452;-76
2024/03/31 11:58:24;;;;;;;;;0.00;0.00;;;;;;;;5097058;27;45259;-78
2024/03/31 12:00:49;;;;;;;;;0.00;0.00;;;;;;;;5100848;27;46324;-79
2024/03/31 12:03:15;;;;;;;;;0.00;0.00;;;;;;;;5099837;27;45264;-81
2024/03/31 12:05:44;;;;;;;;;1.00;0.67;;;;;;;;5099647;27;45424;-82
2024/03/31 12:08:09;;;;;;;;;1.33;0.00;;;;;;;;5099387;27;46033;-81
2024/03/31 12:10:34;;;;;;;;;0.00;0.00;;;;;;;;5099095;27;47185;-83
2024/03/31 12:13:00;;;;;;;;;0.00;0.00;;;;;;;;5099095;27;45343;-81
2024/03/31 12:15:25;;;;;;;;;0.00;0.00;;;;;;;;5101054;27;45365;-79
2024/03/31 12:18:00;;;;;;;;;0.00;0.00;;;;;;;;5100805;27;45308;-81
2024/03/31 12:20:25;;;;;;;;;0.00;0.00;;;;;;;;5100602;27;46664;-82
2024/03/31 12:22:50;;;;;;;;;0.00;0.00;;;;;;;;5100728;27;45292;-80
2024/03/31 12:25:16;;;;;;;;;1.50;0.00;;;;;;;;5100707;27;45294;-79
2024/03/31 12:27:42;;;;;;;;;0.00;0.00;;;;;;;;5099334;27;45908;-80
2024/03/31 12:30:07;;;;;;;;;0.00;0.00;;;;;;;;5099098;27;47601;-80
2024/03/31 12:32:32;;;;;;;;;0.00;0.00;;;;;;;;5100363;27;45311;-80
2024/03/31 12:34:58;;;;;;;;;0.00;0.00;;;;;;;;5098736;27;45283;-78
2024/03/31 12:37:24;;;;;;;;;0.00;0.00;;;;;;;;5100394;27;45471;-78
2024/03/31 12:39:49;;;;;;;;;0.00;0.00;;;;;;;;5098869;27;47549;-77
2024/03/31 12:42:14;;;;;;;;;0.00;0.00;;;;;;;;5099179;27;45314;-78
2024/03/31 12:44:40;;;;;;;;;0.25;0.00;;;;;;;;5093574;27;45266;-79
2024/03/31 12:47:05;;;;;;;;;0.00;0.00;;;;;;;;5079739;28;45483;-79
2024/03/31 12:49:30;;;;;;;;;2.00;2.00;;;;;;;;5082348;28;45225;-78
2024/03/31 12:51:56;;;;;;;;;0.00;0.00;;;;;;;;5085004;28;45417;-75
2024/03/31 12:54:21;;;;;;;;;0.00;0.00;;;;;;;;5083334;28;45345;-78
2024/03/31 12:56:46;;;;;;;;;0.00;0.00;;;;;;;;5081737;27;45352;-77
2024/03/31 12:59:11;;;;;;;;;0.00;0.00;;;;;;;;5078290;27;46556;-79
2024/03/31 13:01:36;;;;;;;;;0.00;0.00;;;;;;;;5083728;28;45275;-76
2024/03/31 13:04:02;;;;;;;;;0.00;0.00;;;;;;;;5082069;28;45315;-77
2024/03/31 13:06:27;;;;;;;;;0.00;0.00;;;;;;;;5084089;28;45346;-78
2024/03/31 13:08:54;;;;;;;;;0.00;0.00;;;;;;;;5083271;28;45503;-80
2024/03/31 13:11:19;;;;;;;;;0.50;0.00;;;;;;;;5083408;28;45354;-80
2024/03/31 13:13:45;;;;;;;;;0.00;0.00;;;;;;;;5083090;28;45413;-80
2024/03/31 13:16:11;;;;;;;;;0.00;0.00;;;;;;;;5082507;28;45295;-77
2024/03/31 13:18:36;;;;;;;;;0.00;0.00;;;;;;;;5082857;28;46076;-82
2024/03/31 13:21:01;;;;;;;;;0.00;0.00;;;;;;;;5081063;28;45882;-83
2024/03/31 13:23:27;;;;;;;;;0.00;0.00;;;;;;;;5083155;28;45137;-79
2024/03/31 13:25:52;;;;;;;;;0.00;0.00;;;;;;;;5081396;28;47228;-79
2024/03/31 13:28:17;;;;;;;;;0.75;0.00;;;;;;;;5081533;28;46585;-78
2024/03/31 13:30:42;;;;;;;;;0.00;0.00;;;;;;;;5082943;28;45342;-79
2024/03/31 13:33:08;;;;;;;;;0.00;0.00;;;;;;;;5083008;28;45328;-79
2024/03/31 13:35:33;;;;;;;;;0.00;0.00;;;;;;;;5082435;28;45318;-79
2024/03/31 13:37:58;;;;;;;;;0.00;0.00;;;;;;;;5081192;28;47398;-79
2024/03/31 13:40:24;;;;;;;;;0.00;0.00;;;;;;;;5083048;28;45256;-79
2024/03/31 13:42:50;;;;;;;;;0.00;0.00;;;;;;;;5082747;28;45413;-79
2024/03/31 13:45:15;;;;;;;;;0.00;0.00;;;;;;;;5082643;28;45561;-78
2024/03/31 13:47:40;;;;;;;;;0.00;0.00;;;;;;;;5080859;28;48310;-79
2024/03/31 13:50:06;;;;;;;;;0.00;0.00;;;;;;;;5082795;28;45374;-78
2024/03/31 13:52:31;;;;;;;;;0.00;0.00;;;;;;;;5082512;28;45437;-79
2024/03/31 13:54:56;;;;;;;;;0.25;0.00;;;;;;;;5082643;28;45404;-78
2024/03/31 13:57:22;;;;;;;;;0.00;0.00;;;;;;;;5090002;27;45374;-78
2024/03/31 13:59:47;;;;;;;;;0.00;0.00;;;;;;;;5102907;27;45266;-76
2024/03/31 14:02:12;;;;;;;;;5.33;4.67;;;;;;;;5103969;27;45263;-77
2024/03/31 14:04:38;;;;;;;;;0.75;0.00;;;;;;;;5102800;27;45492;-77
2024/03/31 14:07:03;;;;;;;;;0.00;0.00;;;;;;;;5102758;27;45349;-76
2024/03/31 14:09:28;;;;;;;;;0.00;0.00;;;;;;;;5102716;27;45281;-77
2024/03/31 14:11:53;;;;;;;;;0.75;0.00;;;;;;;;5101366;27;45550;-79
2024/03/31 14:14:19;;;;;;;;;0.00;0.00;;;;;;;;5101202;27;45420;-77
2024/03/31 14:16:44;;;;;;;;;0.00;0.00;;;;;;;;5102561;27;45550;-77
2024/03/31 14:19:09;;;;;;;;;0.00;0.00;;;;;;;;5102273;27;45278;-77
2024/03/31 14:21:34;;;;;;;;;3.67;3.00;;;;;;;;5096078;27;45509;-76
2024/03/31 14:23:59;;;;;;;;;4.00;4.00;;;;;;;;5069917;28;46216;-78
2024/03/31 14:26:24;;;;;;;;;1.00;1.00;;;;;;;;5078799;28;48166;-79
2024/03/31 14:28:50;;;;;;;;;4.00;3.67;;;;;;;;5074085;28;45459;-80
2024/03/31 14:31:15;;;;;;;;;2.00;2.00;;;;;;;;5059814;28;45672;-78
2024/03/31 14:33:40;;;;;;;;;2.00;2.00;;;;;;;;5064844;28;46441;-80